Time;durP1;ratioP1;P1;durP2;ratioP2;P2;SDS_P1;SDS_P2;PMS_P1;PMS_P2;Temp;Humidity;BMP_temperature;BMP_pressure;BME280_temperature;BME280_humidity;BME280_pressure;Samples;Min_cycle;Max_cycle;Signal;HPM_P1;HPM_P2
2023/10/12 00:01:59;;;;;;;11.82;2.35;;;;;;;;;;5034428;28;20028;-72
2023/10/12 00:04:27;;;;;;;19.60;2.33;;;;;;;;;;5034043;28;20372;-72
2023/10/12 00:06:52;;;;;;;14.95;2.10;;;;;;;;;;5034086;28;20379;-72
2023/10/12 00:09:27;;;;;;;10.38;3.22;;;;;;;;;;5033605;28;20032;-71
2023/10/12 00:11:57;;;;;;;16.25;3.33;;;;;;;;;;5034897;28;20036;-71
2023/10/12 00:14:24;;;;;;;13.98;2.53;;;;;;;;;;5034486;28;20051;-72
2023/10/12 00:16:52;;;;;;;8.55;2.35;;;;;;;;;;5033638;28;20076;-72
2023/10/12 00:19:17;;;;;;;7.53;2.17;;;;;;;;;;5033507;28;20072;-71
2023/10/12 00:21:43;;;;;;;4.72;1.92;;;;;;;;;;5033690;28;20021;-72
2023/10/12 00:24:13;;;;;;;9.85;2.72;;;;;;;;;;5035385;28;20021;-71
2023/10/12 00:26:41;;;;;;;13.30;2.70;;;;;;;;;;5033429;28;20037;-72
2023/10/12 00:29:07;;;;;;;11.50;2.00;;;;;;;;;;5033595;28;20025;-71
2023/10/12 00:31:33;;;;;;;5.65;1.80;;;;;;;;;;5034454;28;20033;-72
2023/10/12 00:33:58;;;;;;;15.50;2.50;;;;;;;;;;5034411;28;20021;-71
2023/10/12 00:36:24;;;;;;;14.10;2.92;;;;;;;;;;5034640;28;20040;-71
2023/10/12 00:38:52;;;;;;;12.52;2.55;;;;;;;;;;5034132;28;20030;-72
2023/10/12 00:41:17;;;;;;;8.27;2.10;;;;;;;;;;5033141;28;20488;-71
2023/10/12 00:44:02;;;;;;;10.00;2.28;;;;;;;;;;5034551;28;20104;-71
2023/10/12 00:49:39;;;;;;;4.93;2.05;;;;;;;;;;5034394;28;20032;-71
2023/10/12 00:51:49;;;;;;;15.15;2.50;;;;;;;;;;5027624;28;20048;-71
2023/10/12 00:54:25;;;;;;;11.70;2.60;;;;;;;;;;5033217;28;20037;-71
2023/10/12 00:56:53;;;;;;;14.68;3.13;;;;;;;;;;5032961;28;20033;-72
2023/10/12 00:59:21;;;;;;;7.20;2.67;;;;;;;;;;5032724;28;20026;-71
2023/10/12 01:01:48;;;;;;;10.95;2.42;;;;;;;;;;5032829;28;20479;-72
2023/10/12 01:04:16;;;;;;;8.50;2.38;;;;;;;;;;5033845;28;20029;-71
2023/10/12 01:06:41;;;;;;;8.35;2.13;;;;;;;;;;5034082;28;20025;-71
2023/10/12 01:09:18;;;;;;;8.30;2.50;;;;;;;;;;5032075;28;20022;-72
2023/10/12 01:11:49;;;;;;;6.55;1.95;;;;;;;;;;5033817;28;20028;-71
2023/10/12 01:14:15;;;;;;;8.52;2.08;;;;;;;;;;5034045;28;20028;-72
2023/10/12 01:19:20;;;;;;;6.28;2.35;;;;;;;;;;5033570;28;20084;-71
2023/10/12 01:21:46;;;;;;;8.77;1.55;;;;;;;;;;5033633;28;20369;-71
2023/10/12 01:24:11;;;;;;;4.35;1.60;;;;;;;;;;5033766;28;20075;-71
2023/10/12 01:26:48;;;;;;;9.15;2.10;;;;;;;;;;5033490;28;20032;-71
2023/10/12 01:29:21;;;;;;;5.45;2.65;;;;;;;;;;5032417;28;20105;-72
2023/10/12 01:34:38;;;;;;;8.63;2.03;;;;;;;;;;5033710;28;20032;-71
2023/10/12 01:37:11;;;;;;;10.48;2.25;;;;;;;;;;5032178;28;20566;-72
2023/10/12 01:39:39;;;;;;;9.43;2.80;;;;;;;;;;5033225;28;20108;-72
2023/10/12 01:42:06;;;;;;;10.70;2.10;;;;;;;;;;5033568;28;20079;-71
2023/10/12 01:44:32;;;;;;;6.47;2.20;;;;;;;;;;5033262;28;20025;-71
2023/10/12 01:46:57;;;;;;;5.63;2.53;;;;;;;;;;5033378;28;20021;-71
2023/10/12 01:49:23;;;;;;;7.00;2.45;;;;;;;;;;5031907;28;20499;-71
2023/10/12 01:51:48;;;;;;;12.43;2.50;;;;;;;;;;5033201;28;20075;-71
2023/10/12 01:54:22;;;;;;;7.10;2.20;;;;;;;;;;5032540;28;20029;-71
2023/10/12 01:56:51;;;;;;;9.07;2.55;;;;;;;;;;5033108;28;20033;-72
2023/10/12 01:59:20;;;;;;;9.00;2.20;;;;;;;;;;5033161;28;20080;-72
2023/10/12 02:01:47;;;;;;;11.65;2.63;;;;;;;;;;5033094;28;20029;-72
2023/10/12 02:04:13;;;;;;;8.20;1.98;;;;;;;;;;5032995;28;20032;-72
2023/10/12 02:06:39;;;;;;;6.82;2.30;;;;;;;;;;5032962;28;20022;-72
2023/10/12 02:09:10;;;;;;;6.10;2.20;;;;;;;;;;5031747;28;20502;-71
2023/10/12 02:11:44;;;;;;;6.13;1.88;;;;;;;;;;5033012;28;20430;-72
2023/10/12 02:14:11;;;;;;;7.80;2.20;;;;;;;;;;5032143;28;20022;-71
2023/10/12 02:16:52;;;;;;;4.72;2.28;;;;;;;;;;5032889;28;20026;-72
2023/10/12 02:19:19;;;;;;;7.35;2.00;;;;;;;;;;5031869;28;20079;-71
2023/10/12 02:21:46;;;;;;;7.88;2.38;;;;;;;;;;5035182;28;20104;-71
2023/10/12 02:24:12;;;;;;;11.57;2.85;;;;;;;;;;5035710;28;20033;-72
2023/10/12 02:26:40;;;;;;;9.30;2.60;;;;;;;;;;5035986;28;20022;-72
2023/10/12 02:34:41;;;;;;;7.90;2.47;;;;;;;;;;5035647;28;20029;-71
2023/10/12 02:39:41;;;;;;;15.90;2.97;;;;;;;;;;5035456;28;20048;-71
2023/10/12 02:47:22;;;;;;;9.18;2.35;;;;;;;;;;5035415;28;20026;-71
2023/10/12 02:50:21;;;;;;;4.53;2.22;;;;;;;;;;5036411;28;20053;-71
2023/10/12 02:52:47;;;;;;;20.17;3.38;;;;;;;;;;5037072;28;20025;-71
2023/10/12 02:55:33;;;;;;;11.60;3.42;;;;;;;;;;5035872;28;20018;-71
2023/10/12 02:58:14;;;;;;;8.60;2.55;;;;;;;;;;5035052;28;20022;-71
2023/10/12 03:03:19;;;;;;;8.80;2.50;;;;;;;;;;5035407;28;20030;-71
2023/10/12 03:05:47;;;;;;;7.93;2.35;;;;;;;;;;5036230;28;20097;-71
2023/10/12 03:08:23;;;;;;;8.70;2.60;;;;;;;;;;5035989;28;20032;-71
2023/10/12 03:13:34;;;;;;;7.60;2.45;;;;;;;;;;5036350;28;20026;-71
2023/10/12 03:16:15;;;;;;;8.70;2.15;;;;;;;;;;5035095;28;20484;-72
2023/10/12 03:18:42;;;;;;;10.43;2.42;;;;;;;;;;5034553;28;20033;-71
2023/10/12 03:21:17;;;;;;;8.75;2.05;;;;;;;;;;5034675;28;20542;-71
2023/10/12 03:23:48;;;;;;;8.20;1.98;;;;;;;;;;5036088;28;20029;-71
2023/10/12 03:26:18;;;;;;;7.97;2.15;;;;;;;;;;5034624;28;20030;-71
2023/10/12 03:28:45;;;;;;;8.15;1.67;;;;;;;;;;5034536;28;20028;-71
2023/10/12 03:31:23;;;;;;;8.50;2.30;;;;;;;;;;5033958;28;20029;-71
2023/10/12 03:33:55;;;;;;;5.60;2.08;;;;;;;;;;5035912;28;20026;-71
2023/10/12 03:36:25;;;;;;;5.68;1.90;;;;;;;;;;5034338;28;20048;-71
2023/10/12 03:41:54;;;;;;;9.48;2.35;;;;;;;;;;5035153;28;20025;-72
2023/10/12 03:47:14;;;;;;;7.65;2.50;;;;;;;;;;5034745;28;20552;-71
2023/10/12 03:49:57;;;;;;;6.13;2.03;;;;;;;;;;5034253;28;20037;-71
2023/10/12 03:52:34;;;;;;;5.28;1.83;;;;;;;;;;5035304;28;20498;-71
2023/10/12 04:02:30;;;;;;;8.40;2.20;;;;;;;;;;5033858;28;20037;-71
2023/10/12 04:05:15;;;;;;;8.88;2.15;;;;;;;;;;5035033;28;20032;-71
2023/10/12 04:13:08;;;;;;;9.93;2.00;;;;;;;;;;5035167;28;20113;-71
2023/10/12 04:16:08;;;;;;;8.30;2.10;;;;;;;;;;5034806;28;20506;-71
2023/10/12 04:18:28;;;;;;;9.52;2.58;;;;;;;;;;5034596;28;20051;-71
2023/10/12 04:20:58;;;;;;;9.35;2.65;;;;;;;;;;5034769;28;20041;-71
2023/10/12 04:26:09;;;;;;;5.93;2.05;;;;;;;;;;5034166;28;20459;-71
2023/10/12 04:28:35;;;;;;;6.35;2.17;;;;;;;;;;5034497;28;20035;-71
2023/10/12 04:34:16;;;;;;;15.45;3.10;;;;;;;;;;5034510;28;20083;-71
2023/10/12 04:36:25;;;;;;;7.80;2.45;;;;;;;;;;5026440;28;20095;-71
2023/10/12 04:38:57;;;;;;;6.25;2.22;;;;;;;;;;5034323;28;20067;-71
2023/10/12 04:43:53;;;;;;;15.73;3.15;;;;;;;;;;5033760;28;20380;-71
2023/10/12 04:51:39;;;;;;;14.45;2.53;;;;;;;;;;5033490;28;20083;-71
2023/10/12 04:54:15;;;;;;;11.18;2.70;;;;;;;;;;5034107;28;20472;-71
2023/10/12 04:56:50;;;;;;;12.57;2.13;;;;;;;;;;5033164;28;20068;-71
2023/10/12 04:59:17;;;;;;;11.98;2.22;;;;;;;;;;5033950;28;20021;-71
2023/10/12 05:09:51;;;;;;;10.05;2.78;;;;;;;;;;5033990;28;20108;-71
2023/10/12 05:12:17;;;;;;;17.42;2.35;;;;;;;;;;5034044;28;20052;-71
2023/10/12 05:14:42;;;;;;;14.65;3.42;;;;;;;;;;5032549;28;20395;-71
2023/10/12 05:17:08;;;;;;;7.53;1.67;;;;;;;;;;5032472;28;20392;-71
2023/10/12 05:19:34;;;;;;;10.07;3.25;;;;;;;;;;5032651;28;20025;-71
2023/10/12 05:22:00;;;;;;;7.07;2.22;;;;;;;;;;5032404;28;20159;-71
2023/10/12 05:24:25;;;;;;;10.68;2.28;;;;;;;;;;5034336;28;20108;-71
2023/10/12 05:26:55;;;;;;;9.57;2.78;;;;;;;;;;5032368;28;20049;-71
2023/10/12 05:31:59;;;;;;;11.10;3.10;;;;;;;;;;5033838;28;20030;-71
2023/10/12 05:37:17;;;;;;;13.13;2.35;;;;;;;;;;5033473;28;20025;-71
2023/10/12 05:39:52;;;;;;;;;;;;;;;;;;5032516;28;20029;-71
2023/10/12 05:42:19;;;;;;;9.30;2.30;;;;;;;;;;5033399;28;20294;-71
2023/10/12 05:44:48;;;;;;;16.58;2.35;;;;;;;;;;5033291;28;20017;-71
2023/10/12 05:47:13;;;;;;;11.65;2.65;;;;;;;;;;5033197;28;20025;-71
2023/10/12 05:49:40;;;;;;;12.63;3.13;;;;;;;;;;5033077;28;20029;-71
2023/10/12 05:52:07;;;;;;;14.45;2.20;;;;;;;;;;5032063;28;20104;-71
2023/10/12 05:54:33;;;;;;;9.85;2.33;;;;;;;;;;5031831;28;20033;-71
2023/10/12 05:57:04;;;;;;;10.50;2.20;;;;;;;;;;5031955;28;20049;-71
2023/10/12 05:59:29;;;;;;;10.02;2.42;;;;;;;;;;5033103;28;20108;-71
2023/10/12 06:01:54;;;;;;;12.82;2.45;;;;;;;;;;5033142;28;20109;-71
2023/10/12 06:04:20;;;;;;;10.35;1.95;;;;;;;;;;5033033;28;20442;-71
2023/10/12 06:06:46;;;;;;;9.43;2.08;;;;;;;;;;5032118;28;20052;-71
2023/10/12 06:09:12;;;;;;;9.90;2.50;;;;;;;;;;5032025;28;20028;-71
2023/10/12 06:11:46;;;;;;;9.30;2.58;;;;;;;;;;5031642;28;20036;-71
2023/10/12 06:14:14;;;;;;;11.25;3.13;;;;;;;;;;5031795;28;20022;-71
2023/10/12 06:16:42;;;;;;;11.27;2.42;;;;;;;;;;5032042;28;20036;-71
2023/10/12 06:19:28;;;;;;;13.23;2.03;;;;;;;;;;5031811;28;20448;-71
2023/10/12 06:21:57;;;;;;;8.90;2.33;;;;;;;;;;5032245;28;20043;-71
2023/10/12 06:24:33;;;;;;;5.53;1.83;;;;;;;;;;5031968;28;20100;-71
2023/10/12 06:27:11;;;;;;;6.18;1.70;;;;;;;;;;5032111;28;20108;-71
2023/10/12 06:29:36;;;;;;;13.52;2.42;;;;;;;;;;5031582;28;20100;-71
2023/10/12 06:32:02;;;;;;;11.63;2.13;;;;;;;;;;5032833;28;20068;-71
2023/10/12 06:34:29;;;;;;;8.93;2.53;;;;;;;;;;5033036;28;20100;-71
2023/10/12 06:36:58;;;;;;;10.88;2.03;;;;;;;;;;5031844;28;20025;-71
2023/10/12 06:44:26;;;;;;;12.77;2.38;;;;;;;;;;5032994;28;20061;-71
2023/10/12 06:46:53;;;;;;;12.07;2.50;;;;;;;;;;5031663;28;20075;-71
2023/10/12 06:49:22;;;;;;;7.85;2.65;;;;;;;;;;5033086;28;20105;-71
2023/10/12 06:51:54;;;;;;;9.23;2.13;;;;;;;;;;5032106;28;20029;-71
2023/10/12 07:00:17;;;;;;;3.97;1.60;;;;;;;;;;5031901;28;20029;-71
2023/10/12 07:02:45;;;;;;;8.32;2.15;;;;;;;;;;5032844;28;20483;-71
2023/10/12 07:05:10;;;;;;;12.02;2.70;;;;;;;;;;5031303;28;20025;-71
2023/10/12 07:07:42;;;;;;;7.10;2.10;;;;;;;;;;5035333;28;20021;-71
2023/10/12 07:12:47;;;;;;;7.47;2.97;;;;;;;;;;5034902;28;20268;-71
2023/10/12 07:15:21;;;;;;;8.07;2.28;;;;;;;;;;5034872;28;20025;-71
2023/10/12 07:17:51;;;;;;;10.43;2.58;;;;;;;;;;5035893;28;20480;-71
2023/10/12 07:23:04;;;;;;;12.07;1.92;;;;;;;;;;5035894;28;20365;-72
2023/10/12 07:25:35;;;;;;;8.52;2.35;;;;;;;;;;5035006;28;20079;-71
2023/10/12 07:28:00;;;;;;;13.82;3.03;;;;;;;;;;5035950;28;20056;-71
2023/10/12 07:30:36;;;;;;;12.80;2.22;;;;;;;;;;5035921;28;20022;-71
2023/10/12 07:33:05;;;;;;;7.05;2.28;;;;;;;;;;5035940;28;20022;-71
2023/10/12 07:35:41;;;;;;;10.43;2.17;;;;;;;;;;5035623;28;20037;-71
2023/10/12 07:38:13;;;;;;;8.15;2.13;;;;;;;;;;5035680;28;20025;-71
2023/10/12 07:43:19;;;;;;;7.10;1.63;;;;;;;;;;5034442;28;19916;-71
2023/10/12 07:45:51;;;;;;;7.97;2.58;;;;;;;;;;5034195;28;20398;-71
2023/10/12 07:48:29;;;;;;;14.02;2.28;;;;;;;;;;5035597;28;20105;-71
2023/10/12 07:50:56;;;;;;;7.22;1.88;;;;;;;;;;5035283;28;20036;-71
2023/10/12 07:53:24;;;;;;;11.00;1.98;;;;;;;;;;5035526;28;20026;-71
2023/10/12 07:55:53;;;;;;;10.82;2.72;;;;;;;;;;5035504;28;20060;-71
2023/10/12 07:58:21;;;;;;;16.27;4.03;;;;;;;;;;5033968;28;20018;-71
2023/10/12 08:00:51;;;;;;;24.27;13.25;;;;;;;;;;5035436;28;20017;-71
2023/10/12 08:03:18;;;;;;;23.58;11.30;;;;;;;;;;5034000;28;20021;-71
2023/10/12 08:05:50;;;;;;;15.82;6.80;;;;;;;;;;5035333;28;20079;-71
2023/10/12 08:08:33;;;;;;;10.52;5.80;;;;;;;;;;5033841;28;20476;-71
2023/10/12 08:10:59;;;;;;;12.13;4.45;;;;;;;;;;5034884;28;20036;-71
2023/10/12 08:24:23;;;;;;;7.63;2.05;;;;;;;;;;5035020;28;20449;-71
2023/10/12 08:26:47;;;;;;;6.15;1.90;;;;;;;;;;5034354;28;20095;-71
2023/10/12 08:31:48;;;;;;;6.30;1.75;;;;;;;;;;5033788;28;20036;-71
2023/10/12 08:39:38;;;;;;;6.35;1.67;;;;;;;;;;5033100;28;20492;-71
2023/10/12 08:44:49;;;;;;;8.38;2.45;;;;;;;;;;5065012;22;20103;-71
2023/10/12 08:47:25;;;;;;;8.80;2.13;;;;;;;;;;5035986;28;20079;-72
2023/10/12 08:49:53;;;;;;;7.38;2.25;;;;;;;;;;5053845;28;20391;-71
2023/10/12 08:52:29;;;;;;;12.27;2.17;;;;;;;;;;5054086;28;20079;-72
2023/10/12 08:55:03;;;;;;;5.47;2.00;;;;;;;;;;5050503;28;20490;-72
2023/10/12 08:57:51;;;;;;;6.03;2.03;;;;;;;;;;5053117;28;20112;-72
2023/10/12 09:00:39;;;;;;;10.30;2.72;;;;;;;;;;5054082;28;20489;-72
2023/10/12 09:03:08;;;;;;;8.30;3.10;;;;;;;;;;5053522;28;20517;-71
2023/10/12 09:05:34;;;;;;;11.32;4.10;;;;;;;;;;5052323;28;20036;-72
2023/10/12 09:13:34;;;;;;;9.90;2.45;;;;;;;;;;5053377;28;20084;-72
2023/10/12 09:16:02;;;;;;;8.88;2.53;;;;;;;;;;5052470;28;20028;-72
2023/10/12 09:18:30;;;;;;;7.68;2.70;;;;;;;;;;5052385;28;20372;-72
2023/10/12 09:36:43;;;;;;;13.82;3.10;;;;;;;;;;5051945;28;20025;-72
2023/10/12 09:39:17;;;;;;;15.30;2.97;;;;;;;;;;5052525;28;20070;-72
2023/10/12 09:41:54;;;;;;;13.15;2.92;;;;;;;;;;5052158;28;20045;-72
2023/10/12 09:44:26;;;;;;;13.23;3.35;;;;;;;;;;5052817;28;20032;-72
2023/10/12 09:46:55;;;;;;;28.20;3.80;;;;;;;;;;5051757;28;20032;-72
2023/10/12 09:49:22;;;;;;;10.35;2.88;;;;;;;;;;5052425;28;20051;-72
2023/10/12 09:51:50;;;;;;;10.13;2.50;;;;;;;;;;5051544;28;20074;-72
2023/10/12 09:54:21;;;;;;;15.55;2.67;;;;;;;;;;5052594;28;20032;-72
2023/10/12 09:56:47;;;;;;;;;;;;;;;;;;5052246;28;20438;-72
2023/10/12 09:59:19;;;;;;;15.02;2.72;;;;;;;;;;5068077;28;20282;-72
2023/10/12 10:07:08;;;;;;;15.13;3.53;;;;;;;;;;5052210;28;20020;-72
2023/10/12 10:12:00;;;;;;;8.45;1.90;;;;;;;;;;5051597;28;20471;-72
2023/10/12 10:14:34;;;;;;;7.28;2.70;;;;;;;;;;5051321;28;20112;-72
2023/10/12 10:17:00;;;;;;;8.75;2.17;;;;;;;;;;5051735;28;20039;-72
2023/10/12 10:19:30;;;;;;;12.23;4.05;;;;;;;;;;5051501;28;20049;-72
2023/10/12 10:22:05;;;;;;;8.65;2.25;;;;;;;;;;5051364;28;20025;-72
2023/10/12 10:24:55;;;;;;;10.80;3.03;;;;;;;;;;5035373;28;20021;-72
2023/10/12 10:27:23;;;;;;;;;;;;;;;;;;5053267;28;20049;-72
2023/10/12 10:29:56;;;;;;;6.40;2.08;;;;;;;;;;5051237;28;19931;-72
2023/10/12 10:32:36;;;;;;;7.22;2.53;;;;;;;;;;5052824;28;20051;-72
2023/10/12 10:35:23;;;;;;;13.88;4.45;;;;;;;;;;5051554;28;20029;-72
2023/10/12 10:38:07;;;;;;;14.20;2.88;;;;;;;;;;5051689;28;20143;-72
2023/10/12 10:40:45;;;;;;;8.60;2.55;;;;;;;;;;5051870;28;20017;-72
2023/10/12 10:43:15;;;;;;;9.38;2.53;;;;;;;;;;5056388;28;20100;-72
2023/10/12 10:45:54;;;;;;;5.63;2.30;;;;;;;;;;5056503;28;20051;-72
2023/10/12 10:48:19;;;;;;;14.20;2.97;;;;;;;;;;5055270;28;20440;-72
2023/10/12 10:50:50;;;;;;;9.95;3.22;;;;;;;;;;5056137;28;20060;-72
2023/10/12 10:53:15;;;;;;;;;;;;;;;;;;5055890;28;20386;-72
2023/10/12 10:55:41;;;;;;;9.45;2.83;;;;;;;;;;5054751;28;19909;-72
2023/10/12 10:58:07;;;;;;;7.47;2.30;;;;;;;;;;5055010;28;20063;-72
2023/10/12 11:00:37;;;;;;;13.05;2.38;;;;;;;;;;5054979;28;20017;-72
2023/10/12 11:03:03;;;;;;;10.48;2.65;;;;;;;;;;5054723;28;20020;-72
2023/10/12 11:05:29;;;;;;;10.07;2.33;;;;;;;;;;5055793;28;20021;-72
2023/10/12 11:07:54;;;;;;;12.20;2.80;;;;;;;;;;5054642;28;20025;-72
2023/10/12 11:10:31;;;;;;;12.25;3.33;;;;;;;;;;5054481;28;20021;-72
2023/10/12 11:13:05;;;;;;;12.65;2.65;;;;;;;;;;5054819;28;20029;-72
2023/10/12 11:15:30;;;;;;;14.23;3.03;;;;;;;;;;5055999;28;20157;-72
2023/10/12 11:18:05;;;;;;;17.77;3.22;;;;;;;;;;5055600;28;20021;-72
2023/10/12 11:20:43;;;;;;;14.25;3.03;;;;;;;;;;5054708;28;20088;-72
2023/10/12 11:23:09;;;;;;;12.52;3.58;;;;;;;;;;5039139;28;20025;-72
2023/10/12 11:25:42;;;;;;;12.60;2.83;;;;;;;;;;5054174;28;20021;-72
2023/10/12 11:28:23;;;;;;;27.92;7.68;;;;;;;;;;5055471;28;20147;-72
2023/10/12 11:31:03;;;;;;;24.17;6.43;;;;;;;;;;5055485;28;20025;-72
2023/10/12 11:33:29;;;;;;;10.00;3.72;;;;;;;;;;5055183;28;20104;-72
2023/10/12 11:36:00;;;;;;;13.80;4.82;;;;;;;;;;5055527;28;20100;-72
2023/10/12 11:38:26;;;;;;;12.32;3.03;;;;;;;;;;5054654;28;20409;-72
2023/10/12 11:40:58;;;;;;;19.83;3.30;;;;;;;;;;5054190;28;20013;-72
2023/10/12 11:43:52;;;;;;;12.02;3.25;;;;;;;;;;5054904;28;20086;-72
2023/10/12 11:46:18;;;;;;;11.50;2.72;;;;;;;;;;5055404;28;20032;-72
2023/10/12 11:48:43;;;;;;;15.52;3.00;;;;;;;;;;5053877;28;20021;-72
2023/10/12 11:51:11;;;;;;;7.43;3.22;;;;;;;;;;5054999;28;20032;-72
2023/10/12 11:53:38;;;;;;;14.30;3.30;;;;;;;;;;5053472;28;20025;-72
2023/10/12 11:56:14;;;;;;;12.70;2.10;;;;;;;;;;5053950;28;20378;-72
2023/10/12 11:58:55;;;;;;;11.90;2.97;;;;;;;;;;5054987;28;20036;-72
2023/10/12 12:01:21;;;;;;;17.63;3.38;;;;;;;;;;5055103;28;20017;-72
2023/10/12 12:03:48;;;;;;;13.77;3.65;;;;;;;;;;5054106;28;20033;-72
2023/10/12 12:06:18;;;;;;;13.48;3.65;;;;;;;;;;5054778;28;20548;-72
2023/10/12 12:08:45;;;;;;;12.70;2.80;;;;;;;;;;5055244;28;20037;-72
2023/10/12 12:11:13;;;;;;;10.90;2.83;;;;;;;;;;5053395;28;20033;-72
2023/10/12 12:13:43;;;;;;;17.23;3.10;;;;;;;;;;5054555;28;20550;-72
2023/10/12 12:16:09;;;;;;;11.32;3.30;;;;;;;;;;5054528;28;20442;-72
2023/10/12 12:18:35;;;;;;;7.95;2.55;;;;;;;;;;5053548;28;20025;-72
2023/10/12 12:21:04;;;;;;;11.70;2.80;;;;;;;;;;5054651;28;20463;-72
2023/10/12 12:23:34;;;;;;;12.38;3.50;;;;;;;;;;5053210;28;20028;-72
2023/10/12 12:26:04;;;;;;;12.40;3.40;;;;;;;;;;5053683;28;20074;-72
2023/10/12 12:28:32;;;;;;;8.27;2.38;;;;;;;;;;5053467;28;20394;-72
2023/10/12 12:31:00;;;;;;;12.65;3.10;;;;;;;;;;5052980;28;20028;-72
2023/10/12 12:33:26;;;;;;;24.92;4.15;;;;;;;;;;5054362;28;20024;-72
2023/10/12 12:36:34;;;;;;;10.25;2.53;;;;;;;;;;5052978;28;20094;-72
2023/10/12 12:38:45;;;;;;;9.82;2.60;;;;;;;;;;5037838;28;20051;-72
2023/10/12 12:41:18;;;;;;;10.27;2.72;;;;;;;;;;5052865;28;20021;-72
2023/10/12 12:43:47;;;;;;;12.23;3.47;;;;;;;;;;5052855;28;20041;-72
2023/10/12 12:46:12;;;;;;;18.55;4.03;;;;;;;;;;5052803;28;20434;-72
2023/10/12 12:48:38;;;;;;;14.15;2.90;;;;;;;;;;5053473;28;20025;-72
2023/10/12 12:51:03;;;;;;;8.05;3.20;;;;;;;;;;5052542;28;20107;-72
2023/10/12 12:53:33;;;;;;;9.95;3.85;;;;;;;;;;5053795;28;20104;-72
2023/10/12 12:56:01;;;;;;;10.18;2.50;;;;;;;;;;5054108;28;20021;-72
2023/10/12 12:58:27;;;;;;;10.68;2.67;;;;;;;;;;5054070;28;20028;-72
2023/10/12 13:00:52;;;;;;;9.65;2.28;;;;;;;;;;5052608;28;20050;-72
2023/10/12 13:03:18;;;;;;;8.90;2.28;;;;;;;;;;5054083;28;20025;-72
2023/10/12 13:05:43;;;;;;;16.33;3.30;;;;;;;;;;5053334;28;20036;-72
2023/10/12 13:08:11;;;;;;;10.88;2.70;;;;;;;;;;5053563;28;20103;-72
2023/10/12 13:10:36;;;;;;;6.80;3.05;;;;;;;;;;5052871;28;20040;-72
2023/10/12 13:13:02;;;;;;;9.90;2.70;;;;;;;;;;5052249;28;20033;-72
2023/10/12 13:15:31;;;;;;;13.73;2.88;;;;;;;;;;5053396;28;20024;-72
2023/10/12 13:17:58;;;;;;;11.32;2.67;;;;;;;;;;5068744;28;20025;-72
2023/10/12 13:20:29;;;;;;;13.32;3.38;;;;;;;;;;5052206;28;20016;-72
2023/10/12 13:22:54;;;;;;;8.15;2.78;;;;;;;;;;5053455;28;20044;-72
2023/10/12 13:25:20;;;;;;;16.85;3.47;;;;;;;;;;5053304;28;20075;-72
2023/10/12 13:27:46;;;;;;;14.50;3.38;;;;;;;;;;5053174;28;20056;-72
2023/10/12 13:30:14;;;;;;;7.18;2.30;;;;;;;;;;5035443;28;20078;-72
2023/10/12 13:32:42;;;;;;;11.13;2.80;;;;;;;;;;5051979;28;20036;-72
2023/10/12 13:37:51;;;;;;;10.52;3.35;;;;;;;;;;5052455;28;20062;-72
2023/10/12 13:40:17;;;;;;;19.30;3.10;;;;;;;;;;5053009;28;20021;-72
2023/10/12 13:42:45;;;;;;;10.70;3.22;;;;;;;;;;5052025;28;20131;-72
2023/10/12 13:45:18;;;;;;;10.27;3.22;;;;;;;;;;5052922;28;20028;-72
2023/10/12 13:47:46;;;;;;;9.57;2.55;;;;;;;;;;5051966;28;20029;-72
2023/10/12 13:50:12;;;;;;;8.95;2.15;;;;;;;;;;5052895;28;20028;-72
2023/10/12 13:52:38;;;;;;;18.48;2.95;;;;;;;;;;5053086;28;20025;-72
2023/10/12 13:55:11;;;;;;;10.07;2.88;;;;;;;;;;5051611;28;20033;-72
2023/10/12 13:58:00;;;;;;;13.23;2.97;;;;;;;;;;5051644;28;20024;-72
2023/10/12 14:00:25;;;;;;;13.07;3.13;;;;;;;;;;5051524;28;20017;-72
2023/10/12 14:02:54;;;;;;;12.50;2.78;;;;;;;;;;5052659;28;20025;-72
2023/10/12 14:05:24;;;;;;;11.23;3.80;;;;;;;;;;5051494;28;20032;-72
2023/10/12 14:07:53;;;;;;;10.65;3.33;;;;;;;;;;5051536;28;20203;-72
2023/10/12 14:10:19;;;;;;;20.10;3.22;;;;;;;;;;5051431;28;20029;-72
2023/10/12 14:12:45;;;;;;;9.20;2.55;;;;;;;;;;5051551;28;20017;-72
2023/10/12 14:15:11;;;;;;;10.45;3.58;;;;;;;;;;5053715;28;20081;-72
2023/10/12 14:17:37;;;;;;;13.00;2.45;;;;;;;;;;5056740;28;20017;-72
2023/10/12 14:20:03;;;;;;;17.13;3.33;;;;;;;;;;5056677;28;20094;-72
2023/10/12 14:22:29;;;;;;;8.70;2.85;;;;;;;;;;5056623;28;20037;-72
2023/10/12 14:24:54;;;;;;;11.27;2.53;;;;;;;;;;5056509;28;20456;-72
2023/10/12 14:27:21;;;;;;;17.20;2.78;;;;;;;;;;5055341;28;20075;-72
2023/10/12 14:29:47;;;;;;;12.70;2.83;;;;;;;;;;5055325;28;20525;-72
2023/10/12 14:32:13;;;;;;;12.23;2.42;;;;;;;;;;5055329;28;20032;-72
2023/10/12 14:34:39;;;;;;;7.43;2.33;;;;;;;;;;5055324;28;20024;-72
2023/10/12 14:37:13;;;;;;;8.00;2.08;;;;;;;;;;5055274;28;20391;-72
2023/10/12 14:39:38;;;;;;;14.02;2.90;;;;;;;;;;5055246;28;20086;-72
2023/10/12 14:42:06;;;;;;;14.90;2.17;;;;;;;;;;5056567;28;20127;-72
2023/10/12 14:44:33;;;;;;;10.50;2.75;;;;;;;;;;5121731;22;20486;-69
2023/10/12 14:47:04;;;;;;;10.93;2.78;;;;;;;;;;5076487;28;20024;-69
2023/10/12 14:49:33;;;;;;;8.43;2.60;;;;;;;;;;5059007;28;20024;-69
2023/10/12 14:51:59;;;;;;;8.55;2.35;;;;;;;;;;5058760;28;20021;-69
2023/10/12 14:54:25;;;;;;;12.13;2.47;;;;;;;;;;5076316;28;20025;-69
2023/10/12 14:56:50;;;;;;;4.22;2.17;;;;;;;;;;5076354;28;20104;-69
2023/10/12 14:59:16;;;;;;;9.48;2.67;;;;;;;;;;5058881;28;20504;-68
2023/10/12 15:01:41;;;;;;;10.52;2.40;;;;;;;;;;5076302;28;20174;-69
2023/10/12 15:04:07;;;;;;;12.18;2.78;;;;;;;;;;5076224;28;20035;-69
2023/10/12 15:06:32;;;;;;;14.98;3.92;;;;;;;;;;5058234;28;20450;-69
2023/10/12 15:08:58;;;;;;;10.38;2.50;;;;;;;;;;5076069;28;20182;-69
2023/10/12 15:11:25;;;;;;;5.97;2.28;;;;;;;;;;5058079;28;20394;-69
2023/10/12 15:13:50;;;;;;;10.30;2.88;;;;;;;;;;5076092;28;20024;-69
2023/10/12 15:16:15;;;;;;;6.07;1.88;;;;;;;;;;5058031;28;20082;-69
2023/10/12 15:18:44;;;;;;;7.47;2.78;;;;;;;;;;5058050;28;20024;-69
2023/10/12 15:21:13;;;;;;;7.95;2.83;;;;;;;;;;5058470;28;20021;-69
2023/10/12 15:23:39;;;;;;;9.15;2.40;;;;;;;;;;5075848;28;20044;-69
2023/10/12 15:26:06;;;;;;;24.90;3.25;;;;;;;;;;5057849;28;20445;-69
2023/10/12 15:28:35;;;;;;;10.20;2.60;;;;;;;;;;5057444;28;20039;-69
2023/10/12 15:31:03;;;;;;;8.85;2.58;;;;;;;;;;5041173;28;20478;-69
2023/10/12 15:33:29;;;;;;;8.48;2.38;;;;;;;;;;5058065;28;20111;-69
2023/10/12 15:35:54;;;;;;;14.38;3.03;;;;;;;;;;5057740;28;20048;-69
2023/10/12 15:38:20;;;;;;;13.75;2.60;;;;;;;;;;5075527;28;20394;-69
2023/10/12 15:40:45;;;;;;;5.97;2.45;;;;;;;;;;5040987;28;20029;-69
2023/10/12 15:43:15;;;;;;;8.02;2.67;;;;;;;;;;5075718;28;20025;-69
2023/10/12 15:45:42;;;;;;;7.35;1.75;;;;;;;;;;5041430;28;20130;-69
2023/10/12 15:48:09;;;;;;;7.07;2.63;;;;;;;;;;5057679;28;20025;-69
2023/10/12 15:50:34;;;;;;;8.32;2.05;;;;;;;;;;5057545;28;20528;-69
2023/10/12 15:53:00;;;;;;;5.80;2.30;;;;;;;;;;5057417;28;20028;-69
2023/10/12 15:55:25;;;;;;;14.20;3.05;;;;;;;;;;5057201;28;20390;-69
2023/10/12 15:57:52;;;;;;;7.10;3.03;;;;;;;;;;5040642;28;20063;-69
2023/10/12 16:00:22;;;;;;;10.48;2.88;;;;;;;;;;5057376;28;20124;-69
2023/10/12 16:03:07;;;;;;;7.55;2.53;;;;;;;;;;5057670;28;20024;-69
2023/10/12 16:05:34;;;;;;;10.75;3.28;;;;;;;;;;5057569;28;20500;-69
2023/10/12 16:08:02;;;;;;;16.80;3.50;;;;;;;;;;5057233;28;20058;-69
2023/10/12 16:10:28;;;;;;;11.38;3.47;;;;;;;;;;5073625;28;20031;-69
2023/10/12 16:12:55;;;;;;;11.27;3.45;;;;;;;;;;5056951;28;20016;-69
2023/10/12 16:15:20;;;;;;;8.10;2.83;;;;;;;;;;5056892;28;20111;-69
2023/10/12 16:17:48;;;;;;;8.27;2.60;;;;;;;;;;5056779;28;20111;-70
2023/10/12 16:20:15;;;;;;;10.65;4.72;;;;;;;;;;5074727;28;20024;-69
2023/10/12 16:22:44;;;;;;;7.72;3.75;;;;;;;;;;5056767;28;20470;-69
2023/10/12 16:25:13;;;;;;;6.63;3.38;;;;;;;;;;5057154;28;20060;-70
2023/10/12 16:27:42;;;;;;;7.78;3.30;;;;;;;;;;5056748;28;20165;-69
2023/10/12 16:30:17;;;;;;;6.80;2.40;;;;;;;;;;5074702;28;20031;-69
2023/10/12 16:32:46;;;;;;;6.35;2.15;;;;;;;;;;5074535;28;20068;-69
2023/10/12 16:35:13;;;;;;;6.45;2.38;;;;;;;;;;5056581;28;20021;-69
2023/10/12 16:37:39;;;;;;;7.40;2.55;;;;;;;;;;5056628;28;20028;-69
2023/10/12 16:40:05;;;;;;;5.15;2.20;;;;;;;;;;5055429;28;20471;-69
2023/10/12 16:42:33;;;;;;;4.85;2.17;;;;;;;;;;5039822;28;20027;-71
2023/10/12 16:45:02;;;;;;;9.85;1.98;;;;;;;;;;5074438;28;20109;-71
2023/10/12 16:47:28;;;;;;;4.97;2.25;;;;;;;;;;5074221;28;20077;-71
2023/10/12 16:49:54;;;;;;;7.35;1.98;;;;;;;;;;5074172;28;20021;-71
2023/10/12 16:52:19;;;;;;;4.55;2.33;;;;;;;;;;5074042;28;20441;-71
2023/10/12 16:54:44;;;;;;;6.00;2.45;;;;;;;;;;5056214;28;20031;-71
2023/10/12 16:57:10;;;;;;;5.50;2.40;;;;;;;;;;5056195;28;20559;-71
2023/10/12 16:59:36;;;;;;;8.45;2.30;;;;;;;;;;5056145;28;20017;-71
2023/10/12 17:02:01;;;;;;;6.20;2.10;;;;;;;;;;5039477;28;20021;-71
2023/10/12 17:04:45;;;;;;;6.88;1.73;;;;;;;;;;5055935;28;20398;-71
2023/10/12 17:07:14;;;;;;;4.05;2.08;;;;;;;;;;5056270;28;20099;-71
2023/10/12 17:09:40;;;;;;;13.30;4.47;;;;;;;;;;5055948;28;20099;-71
2023/10/12 17:12:06;;;;;;;14.02;7.22;;;;;;;;;;5073669;28;20112;-71
2023/10/12 17:14:34;;;;;;;13.60;4.38;;;;;;;;;;5055793;28;20017;-71
2023/10/12 17:17:00;;;;;;;11.57;4.97;;;;;;;;;;5056470;28;20103;-71